Time;durP1;ratioP1;P1;durP2;ratioP2;P2;SDS_P1;SDS_P2;PMS_P1;PMS_P2;Temp;Humidity;BMP_temperature;BMP_pressure;BME280_temperature;BME280_humidity;BME280_pressure;Samples;Min_cycle;Max_cycle;Signal;HPM_P1;HPM_P2
2021/08/09 00:00:39;;;;;;;3.63;1.70;;;;;;;;;;5057573;28;20090;-70
2021/08/09 00:03:24;;;;;;;3.38;1.63;;;;;;;;;;5031433;28;20765;-70
2021/08/09 00:06:09;;;;;;;2.58;1.40;;;;;;;;;;5037640;28;20648;-70
2021/08/09 00:08:53;;;;;;;2.58;1.77;;;;;;;;;;5053938;28;20116;-70
2021/08/09 00:11:38;;;;;;;2.88;1.40;;;;;;;;;;5048070;28;20036;-72
2021/08/09 00:14:22;;;;;;;4.03;1.80;;;;;;;;;;5041121;28;20039;-70
2021/08/09 00:17:07;;;;;;;1.98;1.60;;;;;;;;;;5042174;28;20032;-71
2021/08/09 00:19:52;;;;;;;2.50;1.45;;;;;;;;;;5048402;28;20094;-70
2021/08/09 00:22:36;;;;;;;3.38;1.55;;;;;;;;;;5059561;28;20089;-70
2021/08/09 00:25:21;;;;;;;4.32;1.60;;;;;;;;;;5047404;28;20035;-70
2021/08/09 00:28:05;;;;;;;1.77;1.27;;;;;;;;;;5063168;28;20113;-69
2021/08/09 00:30:50;;;;;;;3.45;1.30;;;;;;;;;;5042524;28;20048;-70
2021/08/09 00:33:34;;;;;;;2.75;1.70;;;;;;;;;;5038100;28;20095;-70
2021/08/09 00:36:19;;;;;;;2.35;1.60;;;;;;;;;;5043159;28;20044;-70
2021/08/09 00:39:03;;;;;;;2.88;1.50;;;;;;;;;;5044850;28;20066;-70
2021/08/09 00:41:48;;;;;;;2.75;1.60;;;;;;;;;;5046991;28;20036;-71
2021/08/09 00:44:33;;;;;;;2.70;1.40;;;;;;;;;;5044688;28;20107;-71
2021/08/09 00:47:17;;;;;;;2.55;1.60;;;;;;;;;;5042462;28;20086;-70
2021/08/09 00:50:02;;;;;;;2.92;2.08;;;;;;;;;;5056576;28;20073;-71
2021/08/09 00:52:47;;;;;;;2.55;1.60;;;;;;;;;;5029705;28;20086;-71
2021/08/09 00:55:32;;;;;;;2.20;1.50;;;;;;;;;;5042809;28;20116;-71
2021/08/09 00:58:16;;;;;;;3.78;1.58;;;;;;;;;;5043518;28;20114;-70
2021/08/09 01:01:00;;;;;;;2.78;1.90;;;;;;;;;;5036366;28;20170;-70
2021/08/09 01:03:45;;;;;;;2.38;1.70;;;;;;;;;;5063466;28;20032;-71
2021/08/09 01:06:30;;;;;;;2.70;1.50;;;;;;;;;;5048170;28;20083;-71
2021/08/09 01:09:22;;;;;;;3.53;1.42;;;;;;;;;;5052155;28;20571;-70
2021/08/09 01:12:08;;;;;;;2.63;1.33;;;;;;;;;;5037181;28;20078;-70
2021/08/09 01:15:04;;;;;;;2.90;1.52;;;;;;;;;;5038553;28;20087;-72
2021/08/09 01:17:49;;;;;;;3.22;1.50;;;;;;;;;;5041599;28;20036;-72
2021/08/09 01:20:43;;;;;;;2.85;1.50;;;;;;;;;;5038791;28;20067;-71
2021/08/09 01:23:30;;;;;;;3.40;1.50;;;;;;;;;;5066553;28;20043;-71
2021/08/09 01:26:35;;;;;;;3.63;1.50;;;;;;;;;;5028912;28;20091;-70
2021/08/09 01:29:21;;;;;;;3.33;1.70;;;;;;;;;;5051764;28;20478;-71
2021/08/09 01:32:06;;;;;;;2.75;1.63;;;;;;;;;;5053885;28;20109;-71
2021/08/09 01:34:51;;;;;;;2.70;1.73;;;;;;;;;;5065488;28;20767;-71
2021/08/09 01:37:38;;;;;;;3.53;1.40;;;;;;;;;;5051841;28;20414;-71
2021/08/09 01:40:24;;;;;;;3.47;1.50;;;;;;;;;;5042264;28;20115;-71
2021/08/09 01:43:08;;;;;;;2.17;1.45;;;;;;;;;;5064852;28;20055;-70
2021/08/09 01:45:54;;;;;;;2.30;1.35;;;;;;;;;;5055232;28;20155;-70
2021/08/09 01:48:38;;;;;;;2.85;1.40;;;;;;;;;;5046980;28;20084;-69
2021/08/09 01:51:23;;;;;;;3.60;1.50;;;;;;;;;;5049701;28;20039;-70
2021/08/09 01:54:08;;;;;;;2.67;1.48;;;;;;;;;;5069574;28;20516;-70
2021/08/09 01:56:53;;;;;;;3.72;1.50;;;;;;;;;;5050959;28;20736;-69
2021/08/09 01:59:37;;;;;;;2.75;1.60;;;;;;;;;;5048062;28;20071;-70
2021/08/09 02:02:22;;;;;;;2.13;1.55;;;;;;;;;;5033852;28;20537;-69
2021/08/09 02:05:08;;;;;;;2.13;1.27;;;;;;;;;;5038497;28;20552;-70
2021/08/09 02:07:53;;;;;;;2.90;1.33;;;;;;;;;;5050150;28;20569;-70
2021/08/09 02:10:38;;;;;;;2.53;1.30;;;;;;;;;;5046024;28;20170;-70
2021/08/09 02:13:33;;;;;;;3.20;1.50;;;;;;;;;;5058534;28;20035;-69
2021/08/09 02:16:37;;;;;;;3.15;1.30;;;;;;;;;;5046772;28;20091;-70
2021/08/09 02:19:40;;;;;;;1.67;1.10;;;;;;;;;;5062787;28;20039;-69
2021/08/09 02:22:25;;;;;;;2.38;1.20;;;;;;;;;;5021948;28;20083;-69
2021/08/09 02:25:11;;;;;;;3.38;1.58;;;;;;;;;;5059271;28;20124;-70
2021/08/09 02:27:59;;;;;;;3.65;1.58;;;;;;;;;;5052644;28;20397;-69
2021/08/09 02:30:45;;;;;;;3.60;1.63;;;;;;;;;;5047142;28;20556;-70
2021/08/09 02:33:30;;;;;;;2.55;1.40;;;;;;;;;;5035852;28;20122;-70
2021/08/09 02:36:14;;;;;;;2.28;1.30;;;;;;;;;;5034657;28;20087;-69
2021/08/09 02:38:59;;;;;;;1.55;1.20;;;;;;;;;;5048706;28;20036;-69
2021/08/09 02:41:44;;;;;;;2.05;1.30;;;;;;;;;;5048179;28;20106;-69
2021/08/09 02:44:28;;;;;;;2.00;1.10;;;;;;;;;;5035162;28;20129;-70
2021/08/09 02:47:13;;;;;;;3.40;1.40;;;;;;;;;;5029033;28;20524;-70
2021/08/09 02:49:58;;;;;;;2.83;1.30;;;;;;;;;;5047698;28;20098;-70
2021/08/09 02:52:43;;;;;;;3.13;1.27;;;;;;;;;;5034318;28;20067;-69
2021/08/09 02:55:27;;;;;;;3.38;1.40;;;;;;;;;;5047768;28;20652;-70
2021/08/09 02:58:12;;;;;;;2.20;1.17;;;;;;;;;;5041567;28;20032;-70
2021/08/09 03:00:57;;;;;;;2.78;1.27;;;;;;;;;;5036365;28;20116;-70
2021/08/09 03:03:41;;;;;;;3.00;1.35;;;;;;;;;;5044330;28;20469;-69
2021/08/09 03:06:26;;;;;;;2.53;1.30;;;;;;;;;;5047572;28;20171;-70
2021/08/09 03:09:11;;;;;;;3.95;1.30;;;;;;;;;;5022187;28;20195;-69
2021/08/09 03:11:55;;;;;;;2.55;1.20;;;;;;;;;;5043711;28;20040;-70
2021/08/09 03:14:40;;;;;;;1.85;1.20;;;;;;;;;;5048221;28;20047;-70
2021/08/09 03:17:24;;;;;;;1.90;1.30;;;;;;;;;;5027841;28;20111;-70
2021/08/09 03:20:09;;;;;;;3.45;1.50;;;;;;;;;;5044521;28;20124;-69
2021/08/09 03:22:54;;;;;;;2.92;1.38;;;;;;;;;;5047071;28;20516;-70
2021/08/09 03:25:38;;;;;;;3.25;1.25;;;;;;;;;;5027296;28;20071;-70
2021/08/09 03:28:23;;;;;;;1.80;1.13;;;;;;;;;;5048588;28;20036;-70
2021/08/09 03:31:07;;;;;;;1.95;1.20;;;;;;;;;;5051002;28;20048;-70
2021/08/09 03:33:52;;;;;;;2.95;1.52;;;;;;;;;;5045550;28;20040;-70
2021/08/09 03:36:41;;;;;;;2.08;1.10;;;;;;;;;;5049075;28;20095;-70
2021/08/09 03:39:25;;;;;;;2.22;1.20;;;;;;;;;;5042239;28;20052;-69
2021/08/09 03:42:10;;;;;;;2.55;1.27;;;;;;;;;;5064419;28;20404;-69
2021/08/09 03:44:54;;;;;;;2.20;1.30;;;;;;;;;;5065635;28;20069;-69
2021/08/09 03:47:39;;;;;;;2.38;1.13;;;;;;;;;;5051979;28;20040;-69
2021/08/09 03:50:23;;;;;;;2.05;1.00;;;;;;;;;;5048761;28;20056;-69
2021/08/09 03:53:08;;;;;;;3.08;1.20;;;;;;;;;;5066056;28;20044;-69
2021/08/09 03:55:52;;;;;;;3.00;1.10;;;;;;;;;;5062473;28;20795;-70
2021/08/09 03:58:37;;;;;;;2.58;1.10;;;;;;;;;;5067513;28;20047;-69
2021/08/09 04:01:22;;;;;;;2.80;1.23;;;;;;;;;;5053588;28;20040;-70
2021/08/09 04:04:07;;;;;;;1.75;1.10;;;;;;;;;;5028355;28;20039;-69
2021/08/09 04:06:52;;;;;;;1.83;1.10;;;;;;;;;;5045839;28;20032;-69
2021/08/09 04:09:36;;;;;;;2.85;1.15;;;;;;;;;;5032132;28;20121;-70
2021/08/09 04:12:21;;;;;;;2.28;1.25;;;;;;;;;;5032248;28;20120;-70
2021/08/09 04:15:07;;;;;;;1.58;1.00;;;;;;;;;;5048080;28;20097;-69
2021/08/09 04:17:52;;;;;;;2.35;1.30;;;;;;;;;;5064924;28;20048;-69
2021/08/09 04:20:37;;;;;;;2.70;1.25;;;;;;;;;;5054188;28;20113;-69
2021/08/09 04:23:22;;;;;;;3.03;1.20;;;;;;;;;;5059561;28;20063;-69
2021/08/09 04:26:06;;;;;;;2.70;1.20;;;;;;;;;;5025137;28;20056;-69
2021/08/09 04:28:51;;;;;;;2.45;1.30;;;;;;;;;;5033670;28;20060;-69
2021/08/09 04:31:40;;;;;;;4.53;1.30;;;;;;;;;;5045540;28;20048;-69
2021/08/09 04:34:25;;;;;;;2.05;1.20;;;;;;;;;;5027706;28;20099;-70
2021/08/09 04:37:09;;;;;;;1.77;1.05;;;;;;;;;;5045673;28;20127;-69
2021/08/09 04:39:54;;;;;;;2.75;1.20;;;;;;;;;;5047027;28;20115;-71
2021/08/09 04:42:38;;;;;;;3.35;1.30;;;;;;;;;;5060515;28;20042;-69
2021/08/09 04:45:24;;;;;;;2.05;1.30;;;;;;;;;;5047601;28;20044;-69
2021/08/09 04:48:09;;;;;;;1.65;1.10;;;;;;;;;;5031780;28;20075;-70
2021/08/09 04:50:54;;;;;;;2.70;1.10;;;;;;;;;;5036642;28;20044;-70
2021/08/09 04:53:38;;;;;;;1.90;1.10;;;;;;;;;;5043804;28;20110;-70
2021/08/09 04:56:23;;;;;;;1.58;1.00;;;;;;;;;;5040131;28;20066;-70
2021/08/09 04:59:07;;;;;;;2.05;1.10;;;;;;;;;;5024084;28;20041;-70
2021/08/09 05:01:52;;;;;;;2.03;1.10;;;;;;;;;;5052374;28;20405;-71
2021/08/09 05:04:37;;;;;;;2.42;1.10;;;;;;;;;;5041827;28;20066;-71
2021/08/09 05:07:22;;;;;;;1.90;1.10;;;;;;;;;;5044464;28;20044;-72
2021/08/09 05:10:06;;;;;;;2.08;1.00;;;;;;;;;;5032045;28;20087;-71
2021/08/09 05:12:51;;;;;;;2.83;1.40;;;;;;;;;;5043258;28;20090;-71
2021/08/09 05:15:38;;;;;;;1.95;1.20;;;;;;;;;;5048922;28;20063;-70
2021/08/09 05:18:23;;;;;;;2.42;1.10;;;;;;;;;;5045338;28;20043;-68
2021/08/09 05:21:08;;;;;;;4.10;1.25;;;;;;;;;;5041201;28;20076;-68
2021/08/09 05:23:52;;;;;;;2.65;1.20;;;;;;;;;;5047068;28;20047;-70
2021/08/09 05:26:37;;;;;;;1.73;1.15;;;;;;;;;;5062821;28;20105;-68
2021/08/09 05:29:21;;;;;;;2.60;1.20;;;;;;;;;;5041080;28;20041;-70
2021/08/09 05:32:06;;;;;;;2.05;1.10;;;;;;;;;;5041375;28;20393;-70
2021/08/09 05:34:50;;;;;;;3.13;1.30;;;;;;;;;;5063583;28;20405;-69
2021/08/09 05:37:35;;;;;;;2.08;1.15;;;;;;;;;;5050816;28;20136;-69
2021/08/09 05:40:20;;;;;;;2.67;1.60;;;;;;;;;;5046801;28;20048;-70
2021/08/09 05:43:05;;;;;;;1.85;1.05;;;;;;;;;;5037811;28;20080;-69
2021/08/09 05:45:49;;;;;;;1.88;1.10;;;;;;;;;;5041415;28;20082;-69
2021/08/09 05:48:34;;;;;;;3.08;1.13;;;;;;;;;;5042591;28;20048;-69
2021/08/09 05:51:19;;;;;;;2.60;1.13;;;;;;;;;;5035760;28;20044;-70
2021/08/09 05:54:03;;;;;;;3.67;1.20;;;;;;;;;;5026933;28;20043;-71
2021/08/09 05:56:48;;;;;;;2.63;1.10;;;;;;;;;;5048268;28;20036;-69
2021/08/09 05:59:32;;;;;;;2.30;1.15;;;;;;;;;;5047999;28;20113;-68
2021/08/09 06:02:17;;;;;;;2.30;1.02;;;;;;;;;;5033674;28;20040;-70
2021/08/09 06:05:04;;;;;;;2.20;1.05;;;;;;;;;;5049619;28;20155;-70
2021/08/09 06:07:48;;;;;;;1.75;1.23;;;;;;;;;;5053562;28;20043;-70
2021/08/09 06:10:33;;;;;;;3.03;1.30;;;;;;;;;;5038879;28;20087;-70
2021/08/09 06:13:17;;;;;;;2.95;1.40;;;;;;;;;;5032514;28;20525;-70
2021/08/09 06:16:01;;;;;;;2.35;1.20;;;;;;;;;;5047146;28;20466;-70
2021/08/09 06:18:46;;;;;;;2.38;1.20;;;;;;;;;;5047486;28;20044;-69
2021/08/09 06:21:31;;;;;;;3.22;1.30;;;;;;;;;;5047658;28;20560;-70
2021/08/09 06:24:15;;;;;;;2.97;1.20;;;;;;;;;;5047015;28;20039;-70
2021/08/09 06:26:59;;;;;;;2.80;1.20;;;;;;;;;;5063925;28;20078;-70
2021/08/09 06:29:44;;;;;;;1.70;1.10;;;;;;;;;;5051392;28;20056;-70
2021/08/09 06:32:28;;;;;;;2.80;1.30;;;;;;;;;;5046546;28;20465;-71
2021/08/09 06:35:13;;;;;;;1.60;1.10;;;;;;;;;;5037113;28;20059;-73
2021/08/09 06:37:58;;;;;;;2.25;1.20;;;;;;;;;;5026487;28;20577;-71
2021/08/09 06:40:45;;;;;;;2.75;1.35;;;;;;;;;;5055779;28;20040;-69
2021/08/09 06:43:30;;;;;;;2.88;1.20;;;;;;;;;;5060331;28;20072;-70
2021/08/09 06:46:14;;;;;;;2.85;1.20;;;;;;;;;;5044717;28;20440;-70
2021/08/09 06:48:59;;;;;;;1.85;1.23;;;;;;;;;;5038602;28;20472;-69
2021/08/09 06:51:44;;;;;;;2.95;1.23;;;;;;;;;;5038308;28;20469;-72
2021/08/09 06:54:30;;;;;;;1.58;1.10;;;;;;;;;;5047814;28;20078;-70
2021/08/09 06:57:15;;;;;;;3.13;1.23;;;;;;;;;;5065210;28;20054;-71
2021/08/09 06:59:59;;;;;;;3.22;1.30;;;;;;;;;;5064403;28;20051;-69
2021/08/09 07:02:44;;;;;;;2.08;1.20;;;;;;;;;;5066183;28;20039;-70
2021/08/09 07:05:29;;;;;;;2.97;1.30;;;;;;;;;;5033167;28;20052;-70
2021/08/09 07:08:14;;;;;;;2.30;1.20;;;;;;;;;;5031554;28;20036;-69
2021/08/09 07:10:58;;;;;;;1.70;1.13;;;;;;;;;;5042738;28;20940;-70
2021/08/09 07:13:43;;;;;;;1.98;1.27;;;;;;;;;;5060526;28;20405;-72
2021/08/09 07:16:28;;;;;;;2.83;1.45;;;;;;;;;;5039073;28;20106;-71
2021/08/09 07:19:13;;;;;;;2.20;1.13;;;;;;;;;;5042102;28;20031;-71
2021/08/09 07:21:58;;;;;;;3.83;1.52;;;;;;;;;;5032357;28;20051;-72
2021/08/09 07:24:42;;;;;;;2.95;1.50;;;;;;;;;;5024574;28;20044;-70
2021/08/09 07:27:27;;;;;;;2.13;1.48;;;;;;;;;;5049537;28;20044;-70
2021/08/09 07:30:13;;;;;;;1.83;1.30;;;;;;;;;;5021871;28;20059;-71
2021/08/09 07:32:57;;;;;;;2.70;1.33;;;;;;;;;;5030248;28;20087;-70
2021/08/09 07:35:42;;;;;;;2.25;1.35;;;;;;;;;;5039048;28;20449;-70
2021/08/09 07:38:26;;;;;;;2.33;1.50;;;;;;;;;;5030755;28;20040;-72
2021/08/09 07:41:11;;;;;;;1.92;1.15;;;;;;;;;;5047727;28;20448;-72
2021/08/09 07:43:55;;;;;;;2.03;1.38;;;;;;;;;;5043062;28;20060;-71
2021/08/09 07:46:40;;;;;;;3.20;1.80;;;;;;;;;;5052514;28;20404;-71
2021/08/09 07:49:24;;;;;;;3.35;1.60;;;;;;;;;;5045715;28;20157;-70
2021/08/09 07:52:09;;;;;;;2.38;1.50;;;;;;;;;;5043898;28;20086;-70
2021/08/09 07:54:55;;;;;;;3.97;1.67;;;;;;;;;;5034833;28;20040;-71
2021/08/09 07:57:41;;;;;;;2.00;1.45;;;;;;;;;;5044449;28;20103;-71
2021/08/09 08:00:26;;;;;;;2.75;1.83;;;;;;;;;;5032355;28;20086;-71
2021/08/09 08:03:11;;;;;;;2.65;1.38;;;;;;;;;;5035711;28;21727;-71
2021/08/09 08:05:55;;;;;;;2.67;1.75;;;;;;;;;;5036177;28;20047;-71
2021/08/09 08:08:40;;;;;;;3.00;1.80;;;;;;;;;;5044315;28;20061;-71
2021/08/09 08:11:24;;;;;;;2.38;1.48;;;;;;;;;;5037430;28;20052;-72
2021/08/09 08:14:09;;;;;;;2.00;1.45;;;;;;;;;;5031181;28;20036;-71
2021/08/09 08:16:54;;;;;;;1.90;1.45;;;;;;;;;;5028243;28;20167;-71
2021/08/09 08:19:39;;;;;;;2.40;1.70;;;;;;;;;;5042922;28;20480;-70
2021/08/09 08:22:23;;;;;;;2.92;1.70;;;;;;;;;;5047923;28;20098;-71
2021/08/09 08:25:08;;;;;;;3.45;1.70;;;;;;;;;;5044636;28;20047;-70
2021/08/09 08:27:53;;;;;;;2.13;1.48;;;;;;;;;;5039581;28;20111;-70
2021/08/09 08:30:37;;;;;;;2.97;1.50;;;;;;;;;;5045770;28;20059;-70
2021/08/09 08:33:22;;;;;;;3.17;1.70;;;;;;;;;;5035352;28;20044;-70
2021/08/09 08:36:07;;;;;;;2.78;1.70;;;;;;;;;;5027625;28;20039;-71
2021/08/09 08:38:51;;;;;;;2.10;1.58;;;;;;;;;;5052287;28;20044;-70
2021/08/09 08:41:38;;;;;;;4.03;1.80;;;;;;;;;;5027687;28;20083;-70
2021/08/09 08:44:23;;;;;;;3.05;1.70;;;;;;;;;;5043492;28;20691;-71
2021/08/09 08:47:08;;;;;;;2.17;1.60;;;;;;;;;;5031727;28;20123;-70
2021/08/09 08:49:52;;;;;;;2.15;1.40;;;;;;;;;;5041891;28;20056;-70
2021/08/09 08:52:42;;;;;;;2.60;1.83;;;;;;;;;;5036566;28;20769;-70
2021/08/09 08:55:26;;;;;;;3.30;1.63;;;;;;;;;;5032046;28;20127;-69
2021/08/09 08:58:11;;;;;;;2.28;1.60;;;;;;;;;;5035151;28;20068;-72
2021/08/09 09:00:55;;;;;;;2.80;1.60;;;;;;;;;;5046812;28;20040;-71
2021/08/09 09:03:40;;;;;;;2.83;1.60;;;;;;;;;;5038692;28;20515;-70
2021/08/09 09:06:25;;;;;;;1.80;1.23;;;;;;;;;;5036901;28;20461;-71
2021/08/09 09:09:19;;;;;;;2.97;1.80;;;;;;;;;;5041158;28;20052;-72
2021/08/09 09:12:13;;;;;;;3.30;1.55;;;;;;;;;;5024262;28;20932;-71
2021/08/09 09:15:01;;;;;;;2.70;1.58;;;;;;;;;;5037831;28;20123;-72
2021/08/09 09:17:46;;;;;;;2.70;1.50;;;;;;;;;;5041562;28;20122;-69
2021/08/09 09:20:31;;;;;;;3.35;1.80;;;;;;;;;;5052823;28;20040;-69
2021/08/09 09:23:21;;;;;;;4.20;1.60;;;;;;;;;;5033503;28;20520;-70
2021/08/09 09:26:18;;;;;;;4.47;2.20;;;;;;;;;;5032168;28;20082;-70
2021/08/09 09:29:07;;;;;;;3.50;1.80;;;;;;;;;;5045717;28;20515;-70
2021/08/09 09:31:53;;;;;;;4.53;1.98;;;;;;;;;;5038822;28;20092;-68
2021/08/09 09:34:41;;;;;;;4.57;1.80;;;;;;;;;;5036172;28;20036;-68
2021/08/09 09:37:36;;;;;;;3.05;1.65;;;;;;;;;;5047763;28;20071;-68
2021/08/09 09:40:21;;;;;;;2.53;1.60;;;;;;;;;;5042628;28;20031;-70
2021/08/09 09:43:16;;;;;;;4.05;1.70;;;;;;;;;;5051873;28;20075;-69
2021/08/09 09:46:00;;;;;;;4.40;1.80;;;;;;;;;;5043954;28;20471;-70
2021/08/09 09:48:45;;;;;;;3.42;2.00;;;;;;;;;;5038191;28;20044;-69
2021/08/09 09:51:29;;;;;;;4.53;2.00;;;;;;;;;;5037834;28;20647;-70
2021/08/09 09:54:14;;;;;;;3.05;1.70;;;;;;;;;;5039120;28;20449;-71
2021/08/09 09:56:58;;;;;;;2.78;1.70;;;;;;;;;;5043888;28;20039;-72
2021/08/09 09:59:42;;;;;;;3.15;1.52;;;;;;;;;;5036030;28;20048;-70
2021/08/09 10:02:27;;;;;;;2.22;1.60;;;;;;;;;;5031960;28;20040;-74
2021/08/09 10:05:12;;;;;;;2.70;1.60;;;;;;;;;;5043500;28;20039;-71
2021/08/09 10:07:57;;;;;;;3.58;2.08;;;;;;;;;;5054264;28;20558;-72
2021/08/09 10:10:46;;;;;;;3.20;1.77;;;;;;;;;;5024521;28;20060;-74
2021/08/09 10:13:31;;;;;;;2.65;1.83;;;;;;;;;;5032409;28;20036;-73
2021/08/09 10:16:16;;;;;;;3.75;1.92;;;;;;;;;;5033922;28;20044;-74
2021/08/09 10:19:02;;;;;;;4.45;1.92;;;;;;;;;;5033115;28;20047;-73
2021/08/09 10:21:51;;;;;;;2.55;1.73;;;;;;;;;;5050903;28;20086;-72
2021/08/09 10:24:36;;;;;;;4.22;1.92;;;;;;;;;;5052929;28;20416;-73
2021/08/09 10:27:40;;;;;;;2.50;1.60;;;;;;;;;;5049841;28;20102;-72
2021/08/09 10:30:25;;;;;;;3.35;1.80;;;;;;;;;;5044644;28;20134;-72
2021/08/09 10:33:11;;;;;;;3.53;2.10;;;;;;;;;;5031522;28;20128;-72
2021/08/09 10:35:58;;;;;;;4.47;2.78;;;;;;;;;;5022415;28;20047;-73
2021/08/09 10:38:44;;;;;;;2.97;1.92;;;;;;;;;;5041638;28;20759;-73
2021/08/09 10:41:29;;;;;;;3.17;1.90;;;;;;;;;;5050503;28;20080;-72
2021/08/09 10:44:13;;;;;;;3.33;1.52;;;;;;;;;;5035585;28;20119;-71
2021/08/09 10:46:58;;;;;;;3.25;1.90;;;;;;;;;;5032489;28;20489;-72
2021/08/09 10:49:43;;;;;;;3.15;1.75;;;;;;;;;;5029750;28;20050;-72
2021/08/09 10:52:34;;;;;;;2.85;1.75;;;;;;;;;;5037833;28;20040;-73
2021/08/09 10:55:32;;;;;;;3.17;1.90;;;;;;;;;;5027774;28;20044;-73
2021/08/09 10:58:35;;;;;;;3.33;2.05;;;;;;;;;;5044739;28;20114;-73
2021/08/09 11:01:22;;;;;;;2.40;1.83;;;;;;;;;;5043373;28;20501;-74
2021/08/09 11:04:08;;;;;;;2.63;1.75;;;;;;;;;;5038148;28;20051;-73
2021/08/09 11:06:53;;;;;;;5.30;1.80;;;;;;;;;;5050892;28;20091;-72
2021/08/09 11:09:41;;;;;;;3.97;2.00;;;;;;;;;;5047909;28;20129;-72
2021/08/09 11:12:26;;;;;;;5.22;2.00;;;;;;;;;;5026731;28;20962;-73
2021/08/09 11:15:14;;;;;;;3.63;2.03;;;;;;;;;;5039949;28;20043;-72
2021/08/09 11:17:59;;;;;;;2.72;1.63;;;;;;;;;;5036928;28;20904;-73
2021/08/09 11:20:44;;;;;;;4.20;2.25;;;;;;;;;;5032917;28;20110;-73
2021/08/09 11:23:34;;;;;;;3.33;1.92;;;;;;;;;;5036733;28;20051;-74
2021/08/09 11:26:19;;;;;;;3.00;1.80;;;;;;;;;;5047574;28;20035;-73
2021/08/09 11:29:05;;;;;;;4.93;1.90;;;;;;;;;;5049907;28;20123;-73
2021/08/09 11:31:50;;;;;;;5.25;1.80;;;;;;;;;;5030669;28;20068;-73
2021/08/09 11:34:35;;;;;;;3.10;2.05;;;;;;;;;;5049248;28;20090;-72
2021/08/09 11:37:19;;;;;;;4.93;2.10;;;;;;;;;;5042876;28;20043;-72
2021/08/09 11:40:04;;;;;;;4.75;1.95;;;;;;;;;;5053985;28;20108;-72
2021/08/09 11:42:49;;;;;;;3.25;1.90;;;;;;;;;;5038254;28;20851;-73
2021/08/09 11:45:34;;;;;;;3.67;1.92;;;;;;;;;;5046945;28;20186;-73
2021/08/09 11:48:26;;;;;;;4.43;1.85;;;;;;;;;;5046234;28;20563;-71
2021/08/09 11:51:11;;;;;;;;;;;;;;;;;;5027131;28;20512;-72
2021/08/09 11:53:56;;;;;;;3.80;1.90;;;;;;;;;;5049358;28;20596;-69
2021/08/09 11:56:43;;;;;;;4.50;2.17;;;;;;;;;;5042505;28;20043;-72
2021/08/09 11:59:28;;;;;;;3.33;1.92;;;;;;;;;;5040950;28;20044;-73
2021/08/09 12:02:13;;;;;;;3.22;1.90;;;;;;;;;;5061572;28;20119;-72
2021/08/09 12:04:58;;;;;;;3.92;1.88;;;;;;;;;;5029002;28;20090;-73
2021/08/09 12:07:43;;;;;;;3.55;2.10;;;;;;;;;;5030663;28;20078;-73
2021/08/09 12:10:27;;;;;;;3.90;2.15;;;;;;;;;;5043965;28;20047;-73
2021/08/09 12:13:24;;;;;;;5.30;2.15;;;;;;;;;;5053562;28;20052;-73
2021/08/09 12:16:18;;;;;;;4.93;2.10;;;;;;;;;;5044300;28;20079;-73
2021/08/09 12:19:05;;;;;;;3.00;2.03;;;;;;;;;;5046135;28;20129;-73
2021/08/09 12:21:49;;;;;;;3.88;1.92;;;;;;;;;;5030357;28;20055;-74
2021/08/09 12:24:34;;;;;;;3.75;1.80;;;;;;;;;;5041976;28;20040;-74
2021/08/09 12:27:19;;;;;;;3.25;1.80;;;;;;;;;;5033368;28;20548;-75
2021/08/09 12:30:05;;;;;;;2.20;1.75;;;;;;;;;;5049453;28;20474;-74
2021/08/09 12:32:56;;;;;;;2.65;1.83;;;;;;;;;;5040202;28;20047;-72
2021/08/09 12:35:41;;;;;;;3.85;1.58;;;;;;;;;;5044271;28;20035;-73
2021/08/09 12:38:35;;;;;;;3.20;1.88;;;;;;;;;;5043438;28;20102;-73
2021/08/09 12:41:30;;;;;;;2.70;1.73;;;;;;;;;;5043410;28;20469;-74
2021/08/09 12:44:15;;;;;;;2.75;1.75;;;;;;;;;;5042548;28;20040;-72
2021/08/09 12:47:00;;;;;;;2.40;1.60;;;;;;;;;;5048315;28;20824;-74
2021/08/09 12:49:44;;;;;;;2.85;1.70;;;;;;;;;;5041604;28;20083;-73
2021/08/09 12:52:28;;;;;;;2.55;1.70;;;;;;;;;;5033669;28;20297;-74
2021/08/09 12:55:13;;;;;;;2.90;1.60;;;;;;;;;;5040209;28;20895;-74
2021/08/09 12:57:59;;;;;;;2.33;1.60;;;;;;;;;;5029935;28;20036;-75
2021/08/09 13:00:44;;;;;;;2.28;1.63;;;;;;;;;;5043347;28;20679;-73
2021/08/09 13:03:29;;;;;;;3.25;1.80;;;;;;;;;;5046653;28;20032;-74
2021/08/09 13:06:14;;;;;;;1.42;1.20;;;;;;;;;;5043955;28;20036;-74
2021/08/09 13:09:01;;;;;;;2.45;1.70;;;;;;;;;;5038945;28;20099;-74
2021/08/09 13:11:46;;;;;;;2.20;1.60;;;;;;;;;;5041848;28;20066;-74
2021/08/09 13:14:30;;;;;;;2.80;1.50;;;;;;;;;;5032823;28;20111;-74
2021/08/09 13:17:15;;;;;;;2.38;1.50;;;;;;;;;;5050999;28;20119;-74
2021/08/09 13:19:59;;;;;;;4.85;1.60;;;;;;;;;;5040239;28;20060;-74
2021/08/09 13:22:44;;;;;;;2.35;1.58;;;;;;;;;;5029497;28;20080;-73
2021/08/09 13:25:29;;;;;;;2.33;1.40;;;;;;;;;;5029917;28;20051;-73
2021/08/09 13:28:13;;;;;;;2.17;1.38;;;;;;;;;;5033295;28;20039;-74
2021/08/09 13:30:58;;;;;;;1.80;1.40;;;;;;;;;;5039686;28;20084;-74
2021/08/09 13:33:45;;;;;;;1.40;1.20;;;;;;;;;;5062955;28;20047;-72
2021/08/09 13:36:30;;;;;;;3.50;1.30;;;;;;;;;;5033311;28;20040;-73
2021/08/09 13:39:15;;;;;;;2.78;1.55;;;;;;;;;;5042123;28;20128;-75
2021/08/09 13:41:59;;;;;;;1.85;1.50;;;;;;;;;;5046024;28;20815;-74
2021/08/09 13:44:43;;;;;;;2.15;1.50;;;;;;;;;;5032576;28;20055;-73
2021/08/09 13:47:28;;;;;;;2.30;1.40;;;;;;;;;;5038302;28;20090;-74
2021/08/09 13:50:13;;;;;;;1.98;1.30;;;;;;;;;;5038269;28;20072;-73
2021/08/09 13:52:57;;;;;;;1.70;1.30;;;;;;;;;;5027382;28;20113;-74
2021/08/09 13:55:42;;;;;;;2.88;1.30;;;;;;;;;;5049541;28;20040;-73
2021/08/09 13:58:27;;;;;;;1.85;1.27;;;;;;;;;;5058850;28;20129;-72
2021/08/09 14:01:12;;;;;;;2.42;1.30;;;;;;;;;;5038912;28;20112;-74
2021/08/09 14:03:56;;;;;;;1.65;1.27;;;;;;;;;;5054912;28;20070;-74
2021/08/09 14:06:41;;;;;;;3.03;1.38;;;;;;;;;;5067300;28;20075;-74
2021/08/09 14:09:25;;;;;;;2.33;1.45;;;;;;;;;;5038516;28;20701;-73
2021/08/09 14:12:10;;;;;;;2.67;1.45;;;;;;;;;;5038134;28;20171;-75
2021/08/09 14:14:55;;;;;;;2.40;1.38;;;;;;;;;;5064438;28;20508;-74
2021/08/09 14:17:40;;;;;;;2.40;1.30;;;;;;;;;;5060111;28;20090;-74
2021/08/09 14:20:25;;;;;;;1.88;1.30;;;;;;;;;;5051491;28;20056;-74
2021/08/09 14:23:09;;;;;;;2.53;1.30;;;;;;;;;;5043313;28;20762;-74
2021/08/09 14:25:54;;;;;;;2.30;1.40;;;;;;;;;;5045446;28;20051;-74
2021/08/09 14:28:38;;;;;;;2.08;1.30;;;;;;;;;;5058804;28;20040;-75
2021/08/09 14:31:24;;;;;;;1.70;1.35;;;;;;;;;;5030074;28;20583;-74
2021/08/09 14:34:09;;;;;;;3.45;1.33;;;;;;;;;;5031758;28;20489;-74
2021/08/09 14:36:53;;;;;;;1.67;1.27;;;;;;;;;;5043717;28;20429;-74
2021/08/09 14:39:38;;;;;;;2.00;1.30;;;;;;;;;;5023644;28;20097;-72
2021/08/09 14:42:22;;;;;;;2.72;1.50;;;;;;;;;;5043175;28;20059;-72
2021/08/09 14:45:07;;;;;;;2.40;1.30;;;;;;;;;;5045093;28;20199;-72
2021/08/09 14:47:52;;;;;;;2.50;1.33;;;;;;;;;;5020879;28;20087;-72
2021/08/09 14:50:40;;;;;;;2.00;1.38;;;;;;;;;;5032515;28;20059;-73
2021/08/09 14:53:24;;;;;;;2.17;1.40;;;;;;;;;;5029823;28;20163;-76
2021/08/09 14:56:09;;;;;;;2.40;1.50;;;;;;;;;;5049352;28;20043;-74
2021/08/09 14:58:53;;;;;;;4.88;1.50;;;;;;;;;;5038648;28;20053;-74
2021/08/09 15:01:38;;;;;;;2.17;1.50;;;;;;;;;;5057863;28;20039;-74
2021/08/09 15:04:22;;;;;;;1.58;1.27;;;;;;;;;;5045021;28;20071;-74
2021/08/09 15:07:07;;;;;;;2.70;1.40;;;;;;;;;;5050605;28;20035;-74
2021/08/09 15:09:51;;;;;;;2.15;1.30;;;;;;;;;;5053538;28;20091;-73
2021/08/09 15:12:36;;;;;;;2.08;1.50;;;;;;;;;;5046676;28;20044;-73
2021/08/09 15:15:21;;;;;;;1.90;1.40;;;;;;;;;;5030512;28;20485;-73
2021/08/09 15:18:06;;;;;;;2.78;1.50;;;;;;;;;;5058943;28;20106;-74
2021/08/09 15:20:51;;;;;;;2.15;1.40;;;;;;;;;;5056028;28;20106;-73
2021/08/09 15:23:36;;;;;;;2.05;1.33;;;;;;;;;;5035091;28;20048;-72
2021/08/09 15:26:20;;;;;;;2.35;1.48;;;;;;;;;;5045722;28;20099;-73
2021/08/09 15:29:05;;;;;;;2.13;1.30;;;;;;;;;;5043951;28;20055;-73
2021/08/09 15:31:49;;;;;;;1.80;1.35;;;;;;;;;;5038523;28;20072;-73
2021/08/09 15:34:34;;;;;;;2.15;1.38;;;;;;;;;;5053686;28;20110;-72
2021/08/09 15:37:19;;;;;;;1.83;1.35;;;;;;;;;;5064205;28;20035;-73
2021/08/09 15:40:04;;;;;;;1.83;1.40;;;;;;;;;;5044409;28;20043;-74
2021/08/09 15:42:49;;;;;;;2.28;1.30;;;;;;;;;;5013948;28;20044;-74
2021/08/09 15:45:33;;;;;;;2.25;1.40;;;;;;;;;;5064468;28;20457;-74
2021/08/09 15:48:18;;;;;;;1.90;1.35;;;;;;;;;;5055368;28;20514;-73
2021/08/09 15:51:02;;;;;;;2.25;1.60;;;;;;;;;;5043535;28;20095;-73
2021/08/09 15:53:52;;;;;;;2.15;1.40;;;;;;;;;;5034454;28;20044;-73
2021/08/09 15:56:37;;;;;;;2.58;1.60;;;;;;;;;;5054372;28;20047;-73
2021/08/09 15:59:21;;;;;;;2.03;1.52;;;;;;;;;;5064495;28;20432;-74
2021/08/09 16:02:06;;;;;;;2.40;1.52;;;;;;;;;;5063362;28;20041;-74
2021/08/09 16:04:52;;;;;;;1.70;1.40;;;;;;;;;;5058890;28;20105;-73
2021/08/09 16:07:37;;;;;;;1.50;1.30;;;;;;;;;;5031535;28;20063;-72
2021/08/09 16:10:21;;;;;;;1.98;1.30;;;;;;;;;;5025319;28;20529;-73
2021/08/09 16:13:06;;;;;;;2.33;1.67;;;;;;;;;;5031228;28;20052;-74
2021/08/09 16:15:50;;;;;;;2.90;1.60;;;;;;;;;;5027233;28;20066;-73
2021/08/09 16:18:35;;;;;;;1.98;1.50;;;;;;;;;;5043483;28;20043;-73
2021/08/09 16:21:20;;;;;;;2.35;1.48;;;;;;;;;;5044569;28;20722;-72
2021/08/09 16:24:05;;;;;;;2.30;1.55;;;;;;;;;;5058348;28;20035;-73
2021/08/09 16:26:50;;;;;;;1.98;1.50;;;;;;;;;;5055713;28;20043;-72
2021/08/09 16:29:34;;;;;;;1.70;1.17;;;;;;;;;;5045543;28;20082;-74
2021/08/09 16:32:19;;;;;;;2.25;1.45;;;;;;;;;;5051085;28;20452;-73